Canebrake, West Virginia
Current Conditions -  °F | °C
As of 8:35 AM on Tuesday 21 Oct 2014 (Local Time) from KJFZ Reporting Station
Overcast Overcast  
Wind Chill: 53°   Ceiling: 500
Heat Index: 53°   Visibility: 10mi
Dew Point: 50°   Wind: 8mph
Humidity: 90%   Direction: 260°W
Pressure: 29.97"   Gusts: NA
Location:  37.2686°N, 81.6669°W
Report Text: KJFZ 211235Z AUTO 26007KT 10SM BKN005 OVC016 11/10 A2997 RMK AO2 T01140098
Loading
Personal Weather Stations






























Interactive Weather Map
Tropical Storm Tracking
New forecast layout! Learn more

10-Day Weather Forecast

Advertisements
Track Severe Weather on mobile